sensor_id;sensor_type;location;lat;lon;timestamp;P1;durP1;ratioP1;P2;durP2;ratioP2
57441;SDS011;43284;47.042;15.498;2023-09-19T00:01:07;10.65;;;6.03;;
57441;SDS011;43284;47.042;15.498;2023-09-19T00:03:34;13.38;;;6.10;;
57441;SDS011;43284;47.042;15.498;2023-09-19T00:06:02;12.60;;;6.60;;
57441;SDS011;43284;47.042;15.498;2023-09-19T00:08:29;22.33;;;7.10;;
57441;SDS011;43284;47.042;15.498;2023-09-19T00:10:56;12.70;;;6.43;;
57441;SDS011;43284;47.042;15.498;2023-09-19T00:13:29;14.02;;;6.95;;
57441;SDS011;43284;47.042;15.498;2023-09-19T00:15:56;20.40;;;6.32;;
57441;SDS011;43284;47.042;15.498;2023-09-19T00:18:24;11.93;;;6.15;;
57441;SDS011;43284;47.042;15.498;2023-09-19T00:20:56;9.82;;;6.18;;
57441;SDS011;43284;47.042;15.498;2023-09-19T00:23:22;12.80;;;5.80;;
57441;SDS011;43284;47.042;15.498;2023-09-19T00:25:49;16.42;;;6.15;;
57441;SDS011;43284;47.042;15.498;2023-09-19T00:28:16;16.88;;;5.95;;
57441;SDS011;43284;47.042;15.498;2023-09-19T00:30:43;13.18;;;5.95;;
57441;SDS011;43284;47.042;15.498;2023-09-19T00:33:10;10.88;;;5.40;;
57441;SDS011;43284;47.042;15.498;2023-09-19T00:35:46;11.75;;;5.28;;
57441;SDS011;43284;47.042;15.498;2023-09-19T00:38:16;10.40;;;5.15;;
57441;SDS011;43284;47.042;15.498;2023-09-19T00:40:45;12.30;;;5.95;;
57441;SDS011;43284;47.042;15.498;2023-09-19T00:43:11;12.35;;;5.65;;
57441;SDS011;43284;47.042;15.498;2023-09-19T00:45:37;9.95;;;5.63;;
57441;SDS011;43284;47.042;15.498;2023-09-19T00:48:04;14.73;;;5.72;;
57441;SDS011;43284;47.042;15.498;2023-09-19T00:50:32;12.63;;;5.07;;
57441;SDS011;43284;47.042;15.498;2023-09-19T00:52:58;15.82;;;5.53;;
57441;SDS011;43284;47.042;15.498;2023-09-19T00:55:24;15.25;;;5.63;;
57441;SDS011;43284;47.042;15.498;2023-09-19T00:57:51;11.50;;;6.05;;
57441;SDS011;43284;47.042;15.498;2023-09-19T01:00:18;11.45;;;5.38;;
57441;SDS011;43284;47.042;15.498;2023-09-19T01:02:45;14.90;;;5.43;;
57441;SDS011;43284;47.042;15.498;2023-09-19T01:05:12;14.80;;;5.43;;
57441;SDS011;43284;47.042;15.498;2023-09-19T01:07:38;13.60;;;4.60;;
57441;SDS011;43284;47.042;15.498;2023-09-19T01:10:07;10.15;;;4.78;;
57441;SDS011;43284;47.042;15.498;2023-09-19T01:23:35;11.65;;;4.35;;
57441;SDS011;43284;47.042;15.498;2023-09-19T01:31:54;10.35;;;4.55;;
57441;SDS011;43284;47.042;15.498;2023-09-19T01:34:26;10.60;;;4.32;;
57441;SDS011;43284;47.042;15.498;2023-09-19T01:36:52;11.73;;;4.15;;
57441;SDS011;43284;47.042;15.498;2023-09-19T01:39:17;9.07;;;4.32;;
57441;SDS011;43284;47.042;15.498;2023-09-19T01:44:19;12.98;;;4.80;;
57441;SDS011;43284;47.042;15.498;2023-09-19T01:47:19;6.88;;;3.63;;
57441;SDS011;43284;47.042;15.498;2023-09-19T01:49:56;7.18;;;3.60;;
57441;SDS011;43284;47.042;15.498;2023-09-19T01:52:30;7.80;;;3.00;;
57441;SDS011;43284;47.042;15.498;2023-09-19T01:55:10;8.38;;;4.40;;
57441;SDS011;43284;47.042;15.498;2023-09-19T01:57:54;9.10;;;4.30;;
57441;SDS011;43284;47.042;15.498;2023-09-19T02:00:50;4.30;;;3.22;;
57441;SDS011;43284;47.042;15.498;2023-09-19T02:03:16;8.68;;;3.88;;
57441;SDS011;43284;47.042;15.498;2023-09-19T02:05:48;6.15;;;3.45;;
57441;SDS011;43284;47.042;15.498;2023-09-19T02:08:18;8.90;;;3.67;;
57441;SDS011;43284;47.042;15.498;2023-09-19T02:10:45;11.13;;;4.15;;
57441;SDS011;43284;47.042;15.498;2023-09-19T02:13:17;11.38;;;3.63;;
57441;SDS011;43284;47.042;15.498;2023-09-19T02:15:50;8.02;;;3.42;;
57441;SDS011;43284;47.042;15.498;2023-09-19T02:18:16;10.27;;;4.00;;
57441;SDS011;43284;47.042;15.498;2023-09-19T02:20:42;12.85;;;3.83;;
57441;SDS011;43284;47.042;15.498;2023-09-19T02:23:07;9.27;;;3.72;;
57441;SDS011;43284;47.042;15.498;2023-09-19T02:25:34;5.65;;;3.95;;
57441;SDS011;43284;47.042;15.498;2023-09-19T02:28:03;6.18;;;3.92;;
57441;SDS011;43284;47.042;15.498;2023-09-19T02:30:29;7.28;;;3.28;;
57441;SDS011;43284;47.042;15.498;2023-09-19T02:32:55;8.27;;;3.20;;
57441;SDS011;43284;47.042;15.498;2023-09-19T02:35:21;7.80;;;3.00;;
57441;SDS011;43284;47.042;15.498;2023-09-19T02:37:47;5.22;;;2.55;;
57441;SDS011;43284;47.042;15.498;2023-09-19T02:40:13;5.22;;;2.90;;
57441;SDS011;43284;47.042;15.498;2023-09-19T02:42:48;4.97;;;2.40;;
57441;SDS011;43284;47.042;15.498;2023-09-19T02:45:17;6.35;;;2.83;;
57441;SDS011;43284;47.042;15.498;2023-09-19T02:47:44;5.38;;;2.90;;
57441;SDS011;43284;47.042;15.498;2023-09-19T02:50:11;4.63;;;2.35;;
57441;SDS011;43284;47.042;15.498;2023-09-19T02:52:38;5.32;;;3.05;;
57441;SDS011;43284;47.042;15.498;2023-09-19T02:55:08;5.00;;;2.30;;
57441;SDS011;43284;47.042;15.498;2023-09-19T02:57:35;4.15;;;2.28;;
57441;SDS011;43284;47.042;15.498;2023-09-19T03:00:02;4.88;;;1.90;;
57441;SDS011;43284;47.042;15.498;2023-09-19T03:02:29;2.47;;;1.60;;
57441;SDS011;43284;47.042;15.498;2023-09-19T03:04:57;4.30;;;1.80;;
57441;SDS011;43284;47.042;15.498;2023-09-19T03:07:25;3.72;;;1.40;;
57441;SDS011;43284;47.042;15.498;2023-09-19T03:09:51;3.28;;;1.75;;
57441;SDS011;43284;47.042;15.498;2023-09-19T03:12:18;3.90;;;2.05;;
57441;SDS011;43284;47.042;15.498;2023-09-19T03:14:43;5.03;;;2.30;;
57441;SDS011;43284;47.042;15.498;2023-09-19T03:17:09;5.82;;;1.70;;
57441;SDS011;43284;47.042;15.498;2023-09-19T03:19:35;6.55;;;1.40;;
57441;SDS011;43284;47.042;15.498;2023-09-19T03:22:02;3.70;;;1.80;;
57441;SDS011;43284;47.042;15.498;2023-09-19T03:24:31;1.55;;;1.20;;
57441;SDS011;43284;47.042;15.498;2023-09-19T03:26:58;2.70;;;1.52;;
57441;SDS011;43284;47.042;15.498;2023-09-19T03:29:24;2.97;;;1.65;;
57441;SDS011;43284;47.042;15.498;2023-09-19T03:31:50;2.33;;;1.40;;
57441;SDS011;43284;47.042;15.498;2023-09-19T03:34:16;4.70;;;1.33;;
57441;SDS011;43284;47.042;15.498;2023-09-19T03:36:42;2.25;;;1.20;;
57441;SDS011;43284;47.042;15.498;2023-09-19T03:39:07;3.17;;;1.40;;
57441;SDS011;43284;47.042;15.498;2023-09-19T03:41:33;2.28;;;1.35;;
57441;SDS011;43284;47.042;15.498;2023-09-19T03:44:01;2.00;;;1.38;;
57441;SDS011;43284;47.042;15.498;2023-09-19T03:46:27;6.18;;;1.40;;
57441;SDS011;43284;47.042;15.498;2023-09-19T03:48:53;4.75;;;1.40;;
57441;SDS011;43284;47.042;15.498;2023-09-19T03:51:20;1.95;;;1.55;;
57441;SDS011;43284;47.042;15.498;2023-09-19T03:53:45;4.57;;;1.42;;
57441;SDS011;43284;47.042;15.498;2023-09-19T03:56:11;1.70;;;1.20;;
57441;SDS011;43284;47.042;15.498;2023-09-19T03:58:37;2.88;;;1.35;;
57441;SDS011;43284;47.042;15.498;2023-09-19T04:01:05;3.42;;;1.55;;
57441;SDS011;43284;47.042;15.498;2023-09-19T04:03:32;2.30;;;1.08;;
57441;SDS011;43284;47.042;15.498;2023-09-19T04:06:14;2.05;;;1.30;;
57441;SDS011;43284;47.042;15.498;2023-09-19T04:08:40;3.50;;;1.17;;
57441;SDS011;43284;47.042;15.498;2023-09-19T04:11:07;3.90;;;1.40;;
57441;SDS011;43284;47.042;15.498;2023-09-19T04:13:32;1.48;;;1.25;;
57441;SDS011;43284;47.042;15.498;2023-09-19T04:15:58;3.15;;;1.15;;
57441;SDS011;43284;47.042;15.498;2023-09-19T04:18:24;2.08;;;0.90;;
57441;SDS011;43284;47.042;15.498;2023-09-19T04:20:50;1.95;;;0.98;;
57441;SDS011;43284;47.042;15.498;2023-09-19T04:23:16;1.77;;;1.08;;
57441;SDS011;43284;47.042;15.498;2023-09-19T04:25:42;1.40;;;1.08;;
57441;SDS011;43284;47.042;15.498;2023-09-19T04:28:08;1.13;;;0.85;;
57441;SDS011;43284;47.042;15.498;2023-09-19T04:30:36;1.38;;;1.00;;
57441;SDS011;43284;47.042;15.498;2023-09-19T04:33:02;3.90;;;1.38;;
57441;SDS011;43284;47.042;15.498;2023-09-19T04:35:31;3.88;;;1.10;;
57441;SDS011;43284;47.042;15.498;2023-09-19T04:37:57;1.30;;;0.90;;
57441;SDS011;43284;47.042;15.498;2023-09-19T04:40:23;1.30;;;0.85;;
57441;SDS011;43284;47.042;15.498;2023-09-19T04:42:53;1.80;;;1.60;;
57441;SDS011;43284;47.042;15.498;2023-09-19T04:45:22;1.48;;;0.82;;
57441;SDS011;43284;47.042;15.498;2023-09-19T04:47:48;2.33;;;1.05;;
57441;SDS011;43284;47.042;15.498;2023-09-19T04:50:13;1.23;;;0.82;;
57441;SDS011;43284;47.042;15.498;2023-09-19T04:52:42;2.78;;;1.23;;
57441;SDS011;43284;47.042;15.498;2023-09-19T04:55:15;2.22;;;1.00;;
57441;SDS011;43284;47.042;15.498;2023-09-19T04:57:44;2.85;;;0.77;;
57441;SDS011;43284;47.042;15.498;2023-09-19T05:00:14;2.60;;;0.80;;
57441;SDS011;43284;47.042;15.498;2023-09-19T05:02:42;1.83;;;1.17;;
57441;SDS011;43284;47.042;15.498;2023-09-19T05:05:10;3.72;;;0.70;;
57441;SDS011;43284;47.042;15.498;2023-09-19T05:07:36;1.80;;;0.98;;
57441;SDS011;43284;47.042;15.498;2023-09-19T05:10:03;1.60;;;1.00;;
57441;SDS011;43284;47.042;15.498;2023-09-19T05:12:35;5.63;;;1.02;;
57441;SDS011;43284;47.042;15.498;2023-09-19T05:15:02;3.67;;;1.00;;
57441;SDS011;43284;47.042;15.498;2023-09-19T05:17:34;3.17;;;0.98;;
57441;SDS011;43284;47.042;15.498;2023-09-19T05:20:00;2.42;;;0.90;;
57441;SDS011;43284;47.042;15.498;2023-09-19T05:22:43;2.50;;;1.00;;
57441;SDS011;43284;47.042;15.498;2023-09-19T05:25:11;4.72;;;1.20;;
57441;SDS011;43284;47.042;15.498;2023-09-19T05:27:41;5.18;;;1.10;;
57441;SDS011;43284;47.042;15.498;2023-09-19T05:30:07;1.55;;;1.02;;
57441;SDS011;43284;47.042;15.498;2023-09-19T05:32:33;1.70;;;1.00;;
57441;SDS011;43284;47.042;15.498;2023-09-19T05:34:59;1.77;;;0.95;;
57441;SDS011;43284;47.042;15.498;2023-09-19T05:37:24;1.42;;;1.02;;
57441;SDS011;43284;47.042;15.498;2023-09-19T05:39:51;1.90;;;0.88;;
57441;SDS011;43284;47.042;15.498;2023-09-19T05:42:18;1.42;;;1.00;;
57441;SDS011;43284;47.042;15.498;2023-09-19T05:44:43;5.03;;;1.23;;
57441;SDS011;43284;47.042;15.498;2023-09-19T05:47:09;3.17;;;1.33;;
57441;SDS011;43284;47.042;15.498;2023-09-19T05:49:35;3.53;;;1.40;;
57441;SDS011;43284;47.042;15.498;2023-09-19T05:52:04;4.18;;;1.33;;
57441;SDS011;43284;47.042;15.498;2023-09-19T05:57:51;3.35;;;1.08;;
57441;SDS011;43284;47.042;15.498;2023-09-19T06:00:21;3.70;;;1.48;;
57441;SDS011;43284;47.042;15.498;2023-09-19T06:02:53;2.67;;;1.40;;
57441;SDS011;43284;47.042;15.498;2023-09-19T06:05:23;5.05;;;1.35;;
57441;SDS011;43284;47.042;15.498;2023-09-19T06:07:51;5.47;;;1.50;;
57441;SDS011;43284;47.042;15.498;2023-09-19T06:10:17;2.47;;;1.40;;
57441;SDS011;43284;47.042;15.498;2023-09-19T06:12:43;4.97;;;2.30;;
57441;SDS011;43284;47.042;15.498;2023-09-19T06:15:09;2.88;;;1.50;;
57441;SDS011;43284;47.042;15.498;2023-09-19T06:17:40;3.78;;;1.23;;
57441;SDS011;43284;47.042;15.498;2023-09-19T06:20:12;3.42;;;1.70;;
57441;SDS011;43284;47.042;15.498;2023-09-19T06:22:43;4.10;;;1.83;;
57441;SDS011;43284;47.042;15.498;2023-09-19T06:25:10;3.50;;;1.88;;
57441;SDS011;43284;47.042;15.498;2023-09-19T06:27:39;3.72;;;1.83;;
57441;SDS011;43284;47.042;15.498;2023-09-19T06:30:09;5.32;;;1.50;;
57441;SDS011;43284;47.042;15.498;2023-09-19T06:32:36;5.03;;;1.67;;
57441;SDS011;43284;47.042;15.498;2023-09-19T06:35:02;9.13;;;2.83;;
57441;SDS011;43284;47.042;15.498;2023-09-19T06:37:30;4.75;;;2.42;;
57441;SDS011;43284;47.042;15.498;2023-09-19T06:39:55;8.65;;;2.75;;
57441;SDS011;43284;47.042;15.498;2023-09-19T06:42:22;9.10;;;2.72;;
57441;SDS011;43284;47.042;15.498;2023-09-19T06:44:48;7.72;;;2.65;;
57441;SDS011;43284;47.042;15.498;2023-09-19T06:47:14;9.20;;;3.95;;
57441;SDS011;43284;47.042;15.498;2023-09-19T06:49:41;8.38;;;3.78;;
57441;SDS011;43284;47.042;15.498;2023-09-19T06:52:09;8.73;;;3.42;;
57441;SDS011;43284;47.042;15.498;2023-09-19T06:54:34;8.18;;;3.83;;
57441;SDS011;43284;47.042;15.498;2023-09-19T06:57:01;10.85;;;4.03;;
57441;SDS011;43284;47.042;15.498;2023-09-19T06:59:26;12.68;;;4.30;;
57441;SDS011;43284;47.042;15.498;2023-09-19T07:01:52;11.13;;;3.45;;
57441;SDS011;43284;47.042;15.498;2023-09-19T07:04:18;7.03;;;3.38;;
57441;SDS011;43284;47.042;15.498;2023-09-19T07:06:50;9.48;;;3.42;;
57441;SDS011;43284;47.042;15.498;2023-09-19T07:09:16;5.32;;;2.70;;
57441;SDS011;43284;47.042;15.498;2023-09-19T07:11:41;11.00;;;2.70;;
57441;SDS011;43284;47.042;15.498;2023-09-19T07:14:07;4.28;;;2.53;;
57441;SDS011;43284;47.042;15.498;2023-09-19T07:16:36;3.55;;;2.10;;
57441;SDS011;43284;47.042;15.498;2023-09-19T07:19:04;4.32;;;2.28;;
57441;SDS011;43284;47.042;15.498;2023-09-19T07:21:29;4.13;;;2.35;;
57441;SDS011;43284;47.042;15.498;2023-09-19T07:23:55;5.72;;;2.42;;
57441;SDS011;43284;47.042;15.498;2023-09-19T07:26:20;5.43;;;2.25;;
57441;SDS011;43284;47.042;15.498;2023-09-19T07:28:46;6.45;;;2.28;;
57441;SDS011;43284;47.042;15.498;2023-09-19T07:31:11;3.30;;;1.98;;
57441;SDS011;43284;47.042;15.498;2023-09-19T07:33:39;3.75;;;1.95;;
57441;SDS011;43284;47.042;15.498;2023-09-19T07:36:05;8.18;;;1.90;;
57441;SDS011;43284;47.042;15.498;2023-09-19T07:38:31;3.58;;;1.88;;
57441;SDS011;43284;47.042;15.498;2023-09-19T07:41:01;5.28;;;2.20;;
57441;SDS011;43284;47.042;15.498;2023-09-19T07:43:27;4.40;;;2.03;;
57441;SDS011;43284;47.042;15.498;2023-09-19T07:45:53;3.67;;;1.90;;
57441;SDS011;43284;47.042;15.498;2023-09-19T07:48:18;4.88;;;1.70;;
57441;SDS011;43284;47.042;15.498;2023-09-19T07:50:44;3.97;;;1.55;;
57441;SDS011;43284;47.042;15.498;2023-09-19T07:53:09;4.90;;;1.55;;
57441;SDS011;43284;47.042;15.498;2023-09-19T07:55:38;4.50;;;1.80;;
57441;SDS011;43284;47.042;15.498;2023-09-19T07:58:06;2.67;;;1.90;;
57441;SDS011;43284;47.042;15.498;2023-09-19T08:00:32;5.63;;;1.95;;
57441;SDS011;43284;47.042;15.498;2023-09-19T08:03:00;8.65;;;2.88;;
57441;SDS011;43284;47.042;15.498;2023-09-19T08:05:26;7.15;;;3.08;;
57441;SDS011;43284;47.042;15.498;2023-09-19T08:07:52;12.57;;;4.70;;
57441;SDS011;43284;47.042;15.498;2023-09-19T08:10:19;8.48;;;4.68;;
57441;SDS011;43284;47.042;15.498;2023-09-19T08:12:46;8.45;;;4.05;;
57441;SDS011;43284;47.042;15.498;2023-09-19T08:15:16;13.40;;;3.60;;
57441;SDS011;43284;47.042;15.498;2023-09-19T08:17:46;5.50;;;3.25;;
57441;SDS011;43284;47.042;15.498;2023-09-19T08:20:12;10.52;;;3.10;;
57441;SDS011;43284;47.042;15.498;2023-09-19T08:22:49;6.13;;;3.13;;
57441;SDS011;43284;47.042;15.498;2023-09-19T08:25:17;5.15;;;3.20;;
57441;SDS011;43284;47.042;15.498;2023-09-19T08:27:44;4.07;;;2.67;;
57441;SDS011;43284;47.042;15.498;2023-09-19T08:30:14;7.15;;;2.83;;
57441;SDS011;43284;47.042;15.498;2023-09-19T08:32:45;5.57;;;2.70;;
57441;SDS011;43284;47.042;15.498;2023-09-19T08:35:13;8.32;;;2.75;;
57441;SDS011;43284;47.042;15.498;2023-09-19T08:37:39;8.10;;;3.45;;
57441;SDS011;43284;47.042;15.498;2023-09-19T08:40:04;7.28;;;2.78;;
57441;SDS011;43284;47.042;15.498;2023-09-19T08:42:47;7.75;;;3.10;;
57441;SDS011;43284;47.042;15.498;2023-09-19T08:45:19;6.78;;;2.30;;
57441;SDS011;43284;47.042;15.498;2023-09-19T08:47:54;6.03;;;2.85;;
57441;SDS011;43284;47.042;15.498;2023-09-19T08:50:29;4.88;;;1.98;;
57441;SDS011;43284;47.042;15.498;2023-09-19T08:52:56;4.40;;;1.70;;
57441;SDS011;43284;47.042;15.498;2023-09-19T08:55:28;7.28;;;2.03;;
57441;SDS011;43284;47.042;15.498;2023-09-19T08:57:59;5.32;;;1.80;;
57441;SDS011;43284;47.042;15.498;2023-09-19T09:00:28;3.92;;;1.95;;
57441;SDS011;43284;47.042;15.498;2023-09-19T09:02:55;4.20;;;1.92;;
57441;SDS011;43284;47.042;15.498;2023-09-19T09:05:22;4.40;;;2.10;;
57441;SDS011;43284;47.042;15.498;2023-09-19T09:07:49;3.25;;;1.80;;
57441;SDS011;43284;47.042;15.498;2023-09-19T09:10:20;4.95;;;1.52;;
57441;SDS011;43284;47.042;15.498;2023-09-19T09:12:48;2.47;;;1.52;;
57441;SDS011;43284;47.042;15.498;2023-09-19T09:15:17;5.13;;;1.70;;
57441;SDS011;43284;47.042;15.498;2023-09-19T09:17:46;3.17;;;1.83;;
57441;SDS011;43284;47.042;15.498;2023-09-19T09:20:13;3.00;;;1.55;;
57441;SDS011;43284;47.042;15.498;2023-09-19T09:22:38;4.00;;;1.30;;
57441;SDS011;43284;47.042;15.498;2023-09-19T09:25:15;4.65;;;1.85;;
57441;SDS011;43284;47.042;15.498;2023-09-19T09:27:43;6.63;;;2.00;;
57441;SDS011;43284;47.042;15.498;2023-09-19T09:30:10;8.05;;;2.03;;
57441;SDS011;43284;47.042;15.498;2023-09-19T09:33:09;3.55;;;1.50;;
57441;SDS011;43284;47.042;15.498;2023-09-19T09:35:51;6.28;;;1.33;;
57441;SDS011;43284;47.042;15.498;2023-09-19T09:38:18;4.65;;;1.80;;
57441;SDS011;43284;47.042;15.498;2023-09-19T09:40:49;2.22;;;1.05;;
57441;SDS011;43284;47.042;15.498;2023-09-19T09:43:33;3.45;;;1.40;;
57441;SDS011;43284;47.042;15.498;2023-09-19T09:48:57;3.13;;;1.60;;
57441;SDS011;43284;47.042;15.498;2023-09-19T09:51:41;1.63;;;0.98;;
57441;SDS011;43284;47.042;15.498;2023-09-19T09:54:17;3.72;;;1.38;;
57441;SDS011;43284;47.042;15.498;2023-09-19T09:56:56;3.08;;;1.30;;
57441;SDS011;43284;47.042;15.498;2023-09-19T10:02:27;2.08;;;1.40;;
57441;SDS011;43284;47.042;15.498;2023-09-19T10:05:14;2.60;;;1.65;;
57441;SDS011;43284;47.042;15.498;2023-09-19T10:07:53;3.40;;;1.52;;
57441;SDS011;43284;47.042;15.498;2023-09-19T10:10:38;2.40;;;1.58;;
57441;SDS011;43284;47.042;15.498;2023-09-19T10:13:08;2.90;;;1.42;;
57441;SDS011;43284;47.042;15.498;2023-09-19T10:15:49;3.25;;;1.40;;
57441;SDS011;43284;47.042;15.498;2023-09-19T10:18:19;3.65;;;1.63;;
57441;SDS011;43284;47.042;15.498;2023-09-19T10:20:46;3.90;;;1.00;;
57441;SDS011;43284;47.042;15.498;2023-09-19T10:23:13;1.80;;;0.88;;
57441;SDS011;43284;47.042;15.498;2023-09-19T10:25:45;2.88;;;0.85;;
57441;SDS011;43284;47.042;15.498;2023-09-19T10:28:12;1.95;;;1.00;;
57441;SDS011;43284;47.042;15.498;2023-09-19T10:30:44;2.50;;;0.80;;
57441;SDS011;43284;47.042;15.498;2023-09-19T10:33:12;3.53;;;1.10;;
57441;SDS011;43284;47.042;15.498;2023-09-19T10:35:39;3.85;;;1.35;;
57441;SDS011;43284;47.042;15.498;2023-09-19T10:38:07;1.85;;;0.98;;
57441;SDS011;43284;47.042;15.498;2023-09-19T10:40:48;0.90;;;0.70;;
57441;SDS011;43284;47.042;15.498;2023-09-19T10:43:16;2.67;;;0.90;;
57441;SDS011;43284;47.042;15.498;2023-09-19T10:45:46;3.28;;;0.77;;
57441;SDS011;43284;47.042;15.498;2023-09-19T10:48:18;1.42;;;0.80;;
57441;SDS011;43284;47.042;15.498;2023-09-19T10:54:33;1.60;;;0.80;;
57441;SDS011;43284;47.042;15.498;2023-09-19T10:56:38;3.20;;;0.80;;
57441;SDS011;43284;47.042;15.498;2023-09-19T10:59:20;2.47;;;0.85;;
57441;SDS011;43284;47.042;15.498;2023-09-19T11:01:47;1.83;;;0.85;;
57441;SDS011;43284;47.042;15.498;2023-09-19T11:04:21;1.88;;;1.00;;
57441;SDS011;43284;47.042;15.498;2023-09-19T11:07:05;1.92;;;0.88;;
57441;SDS011;43284;47.042;15.498;2023-09-19T11:09:47;1.60;;;0.85;;
57441;SDS011;43284;47.042;15.498;2023-09-19T11:13:01;2.03;;;0.90;;
57441;SDS011;43284;47.042;15.498;2023-09-19T11:15:08;4.47;;;0.85;;
57441;SDS011;43284;47.042;15.498;2023-09-19T11:17:36;2.10;;;0.80;;
57441;SDS011;43284;47.042;15.498;2023-09-19T11:25:42;4.22;;;0.88;;
57441;SDS011;43284;47.042;15.498;2023-09-19T11:30:42;4.30;;;1.23;;
57441;SDS011;43284;47.042;15.498;2023-09-19T11:36:02;1.70;;;0.90;;
57441;SDS011;43284;47.042;15.498;2023-09-19T11:46:17;2.97;;;1.00;;
57441;SDS011;43284;47.042;15.498;2023-09-19T11:48:49;2.72;;;1.00;;
57441;SDS011;43284;47.042;15.498;2023-09-19T11:51:20;1.05;;;0.80;;
57441;SDS011;43284;47.042;15.498;2023-09-19T11:53:53;1.58;;;0.80;;
57441;SDS011;43284;47.042;15.498;2023-09-19T11:56:23;1.27;;;0.98;;
57441;SDS011;43284;47.042;15.498;2023-09-19T11:58:53;1.77;;;1.30;;
57441;SDS011;43284;47.042;15.498;2023-09-19T12:01:30;3.15;;;0.70;;
57441;SDS011;43284;47.042;15.498;2023-09-19T12:03:58;1.65;;;1.17;;
57441;SDS011;43284;47.042;15.498;2023-09-19T12:06:25;1.00;;;0.80;;
57441;SDS011;43284;47.042;15.498;2023-09-19T12:08:51;3.33;;;1.08;;
57441;SDS011;43284;47.042;15.498;2023-09-19T12:11:19;1.58;;;0.80;;
57441;SDS011;43284;47.042;15.498;2023-09-19T12:13:46;2.85;;;0.77;;
57441;SDS011;43284;47.042;15.498;2023-09-19T12:16:17;1.05;;;0.90;;
57441;SDS011;43284;47.042;15.498;2023-09-19T12:18:47;1.77;;;0.77;;
57441;SDS011;43284;47.042;15.498;2023-09-19T12:21:25;3.65;;;1.55;;
57441;SDS011;43284;47.042;15.498;2023-09-19T12:24:04;2.90;;;0.82;;
57441;SDS011;43284;47.042;15.498;2023-09-19T12:26:44;2.25;;;1.05;;
57441;SDS011;43284;47.042;15.498;2023-09-19T12:29:20;2.15;;;1.05;;
57441;SDS011;43284;47.042;15.498;2023-09-19T12:31:47;1.80;;;0.70;;
57441;SDS011;43284;47.042;15.498;2023-09-19T12:34:22;1.90;;;1.33;;
57441;SDS011;43284;47.042;15.498;2023-09-19T12:37:13;3.08;;;1.13;;
57441;SDS011;43284;47.042;15.498;2023-09-19T12:40:09;1.70;;;1.10;;
57441;SDS011;43284;47.042;15.498;2023-09-19T12:42:43;1.58;;;0.90;;
57441;SDS011;43284;47.042;15.498;2023-09-19T12:45:09;1.95;;;1.00;;
57441;SDS011;43284;47.042;15.498;2023-09-19T12:47:38;1.90;;;0.75;;
57441;SDS011;43284;47.042;15.498;2023-09-19T12:50:05;2.78;;;1.08;;
57441;SDS011;43284;47.042;15.498;2023-09-19T12:52:52;0.82;;;0.63;;
57441;SDS011;43284;47.042;15.498;2023-09-19T12:55:28;1.00;;;0.70;;
57441;SDS011;43284;47.042;15.498;2023-09-19T13:00:41;2.53;;;1.10;;
57441;SDS011;43284;47.042;15.498;2023-09-19T13:03:24;3.60;;;1.10;;
57441;SDS011;43284;47.042;15.498;2023-09-19T13:11:13;1.73;;;1.00;;
57441;SDS011;43284;47.042;15.498;2023-09-19T13:16:20;1.23;;;0.90;;
57441;SDS011;43284;47.042;15.498;2023-09-19T13:18:53;2.08;;;1.23;;
57441;SDS011;43284;47.042;15.498;2023-09-19T13:24:23;3.08;;;0.93;;
57441;SDS011;43284;47.042;15.498;2023-09-19T13:26:54;1.88;;;0.80;;
57441;SDS011;43284;47.042;15.498;2023-09-19T13:29:21;3.22;;;1.20;;
57441;SDS011;43284;47.042;15.498;2023-09-19T13:31:50;7.60;;;1.10;;
57441;SDS011;43284;47.042;15.498;2023-09-19T13:34:18;2.88;;;0.95;;
57441;SDS011;43284;47.042;15.498;2023-09-19T13:36:44;1.75;;;0.98;;
57441;SDS011;43284;47.042;15.498;2023-09-19T13:39:12;0.98;;;0.85;;
57441;SDS011;43284;47.042;15.498;2023-09-19T13:41:38;1.20;;;0.65;;
57441;SDS011;43284;47.042;15.498;2023-09-19T13:44:04;1.52;;;1.00;;
57441;SDS011;43284;47.042;15.498;2023-09-19T13:46:30;2.08;;;0.90;;
57441;SDS011;43284;47.042;15.498;2023-09-19T13:49:00;1.90;;;1.08;;
57441;SDS011;43284;47.042;15.498;2023-09-19T13:51:28;1.67;;;0.90;;
57441;SDS011;43284;47.042;15.498;2023-09-19T13:53:55;1.85;;;0.90;;
57441;SDS011;43284;47.042;15.498;2023-09-19T13:56:21;3.15;;;1.48;;
57441;SDS011;43284;47.042;15.498;2023-09-19T13:58:46;2.85;;;0.98;;
57441;SDS011;43284;47.042;15.498;2023-09-19T14:01:12;5.65;;;2.55;;
57441;SDS011;43284;47.042;15.498;2023-09-19T14:03:38;4.78;;;1.15;;
57441;SDS011;43284;47.042;15.498;2023-09-19T14:06:04;1.95;;;0.90;;
57441;SDS011;43284;47.042;15.498;2023-09-19T14:08:30;2.17;;;1.20;;
57441;SDS011;43284;47.042;15.498;2023-09-19T14:10:58;1.83;;;1.00;;
57441;SDS011;43284;47.042;15.498;2023-09-19T14:13:24;2.35;;;1.05;;
57441;SDS011;43284;47.042;15.498;2023-09-19T14:15:50;2.60;;;1.10;;
57441;SDS011;43284;47.042;15.498;2023-09-19T14:18:16;1.33;;;0.82;;
57441;SDS011;43284;47.042;15.498;2023-09-19T14:20:43;2.72;;;1.48;;
57441;SDS011;43284;47.042;15.498;2023-09-19T14:23:09;7.03;;;0.95;;
57441;SDS011;43284;47.042;15.498;2023-09-19T14:25:35;2.85;;;1.35;;
57441;SDS011;43284;47.042;15.498;2023-09-19T14:28:01;2.80;;;1.35;;
57441;SDS011;43284;47.042;15.498;2023-09-19T14:30:27;27.35;;;10.75;;
57441;SDS011;43284;47.042;15.498;2023-09-19T14:32:52;16.67;;;5.97;;
57441;SDS011;43284;47.042;15.498;2023-09-19T14:35:18;4.47;;;2.60;;
57441;SDS011;43284;47.042;15.498;2023-09-19T14:37:44;7.20;;;3.60;;
57441;SDS011;43284;47.042;15.498;2023-09-19T14:40:10;5.53;;;2.08;;
57441;SDS011;43284;47.042;15.498;2023-09-19T14:42:38;5.13;;;1.70;;
57441;SDS011;43284;47.042;15.498;2023-09-19T14:45:05;1.33;;;0.95;;
57441;SDS011;43284;47.042;15.498;2023-09-19T14:47:31;2.50;;;0.90;;
57441;SDS011;43284;47.042;15.498;2023-09-19T14:49:59;3.72;;;0.98;;
57441;SDS011;43284;47.042;15.498;2023-09-19T14:52:31;0.93;;;0.68;;
57441;SDS011;43284;47.042;15.498;2023-09-19T14:54:58;1.80;;;0.70;;
57441;SDS011;43284;47.042;15.498;2023-09-19T14:57:24;3.45;;;2.20;;
57441;SDS011;43284;47.042;15.498;2023-09-19T14:59:51;2.58;;;1.00;;
57441;SDS011;43284;47.042;15.498;2023-09-19T15:02:17;3.55;;;2.03;;
57441;SDS011;43284;47.042;15.498;2023-09-19T15:04:42;3.30;;;1.30;;
57441;SDS011;43284;47.042;15.498;2023-09-19T15:07:11;1.42;;;1.00;;
57441;SDS011;43284;47.042;15.498;2023-09-19T15:09:40;5.78;;;1.30;;
57441;SDS011;43284;47.042;15.498;2023-09-19T15:12:06;1.95;;;1.20;;
57441;SDS011;43284;47.042;15.498;2023-09-19T15:14:32;1.85;;;1.10;;
57441;SDS011;43284;47.042;15.498;2023-09-19T15:16:57;3.03;;;1.10;;
57441;SDS011;43284;47.042;15.498;2023-09-19T15:19:23;3.97;;;1.02;;
57441;SDS011;43284;47.042;15.498;2023-09-19T15:21:48;3.88;;;1.02;;
57441;SDS011;43284;47.042;15.498;2023-09-19T15:24:14;2.47;;;1.15;;
57441;SDS011;43284;47.042;15.498;2023-09-19T15:26:40;1.75;;;1.00;;
57441;SDS011;43284;47.042;15.498;2023-09-19T15:29:07;2.83;;;1.40;;
57441;SDS011;43284;47.042;15.498;2023-09-19T15:31:33;2.13;;;1.13;;
57441;SDS011;43284;47.042;15.498;2023-09-19T15:33:58;6.05;;;1.10;;
57441;SDS011;43284;47.042;15.498;2023-09-19T15:36:24;1.55;;;0.90;;
57441;SDS011;43284;47.042;15.498;2023-09-19T15:41:16;2.80;;;1.35;;
57441;SDS011;43284;47.042;15.498;2023-09-19T15:43:42;1.60;;;0.82;;
57441;SDS011;43284;47.042;15.498;2023-09-19T15:46:07;5.13;;;1.50;;
57441;SDS011;43284;47.042;15.498;2023-09-19T15:48:33;2.42;;;1.15;;
57441;SDS011;43284;47.042;15.498;2023-09-19T15:51:02;1.00;;;0.90;;